Time;durP1;ratioP1;P1;durP2;ratioP2;P2;SDS_P1;SDS_P2;PMS_P1;PMS_P2;Temp;Humidity;BMP_temperature;BMP_pressure;BME280_temperature;BME280_humidity;BME280_pressure;Samples;Min_cycle;Max_cycle;Signal;HPM_P1;HPM_P2
2021/12/28 00:00:31;;;;;;;13.95;5.93;;;;;;;;;;7392059;19;20017;-56
2021/12/28 00:02:59;;;;;;;13.13;6.00;;;;;;;;;;7392158;19;20015;-55
2021/12/28 00:05:27;;;;;;;10.75;5.65;;;;;;;;;;7391064;19;20024;-60
2021/12/28 00:07:54;;;;;;;13.27;6.05;;;;;;;;;;7389062;19;20015;-58
2021/12/28 00:10:22;;;;;;;12.00;5.70;;;;;;;;;;7396025;19;20007;-53
2021/12/28 00:12:49;;;;;;;14.15;5.70;;;;;;;;;;7390693;19;20488;-58
2021/12/28 00:18:01;;;;;;;11.02;5.75;;;;;;;;;;7392028;19;20020;-55
2021/12/28 00:20:33;;;;;;;13.43;5.65;;;;;;;;;;7389861;19;20035;-53
2021/12/28 00:23:04;;;;;;;11.15;5.13;;;;;;;;;;7391742;19;20007;-60
2021/12/28 00:25:32;;;;;;;11.00;5.47;;;;;;;;;;7391300;19;20033;-55
2021/12/28 00:27:59;;;;;;;10.02;4.82;;;;;;;;;;7388334;19;20015;-60
2021/12/28 00:30:27;;;;;;;9.90;5.20;;;;;;;;;;7391230;19;20010;-60
2021/12/28 00:32:56;;;;;;;9.15;4.22;;;;;;;;;;7391010;19;20045;-60
2021/12/28 00:35:26;;;;;;;7.68;4.45;;;;;;;;;;7390909;19;20015;-54
2021/12/28 00:37:53;;;;;;;13.68;4.68;;;;;;;;;;7391572;19;20006;-55
2021/12/28 00:40:22;;;;;;;9.75;4.53;;;;;;;;;;7388884;19;20007;-55
2021/12/28 00:42:50;;;;;;;9.05;4.28;;;;;;;;;;7391889;19;20033;-58
2021/12/28 00:45:18;;;;;;;10.38;4.35;;;;;;;;;;7390775;19;20010;-54
2021/12/28 00:47:46;;;;;;;7.57;4.60;;;;;;;;;;7389214;19;20007;-59
2021/12/28 00:50:15;;;;;;;9.48;4.25;;;;;;;;;;7391084;19;20011;-56
2021/12/28 00:52:44;;;;;;;7.80;4.05;;;;;;;;;;7390535;19;20026;-54
2021/12/28 00:55:12;;;;;;;8.18;4.00;;;;;;;;;;7390490;19;20019;-54
2021/12/28 00:57:41;;;;;;;9.80;4.07;;;;;;;;;;7390868;19;20015;-58
2021/12/28 01:00:12;;;;;;;10.50;4.60;;;;;;;;;;7390733;19;20025;-56
2021/12/28 01:02:43;;;;;;;7.72;3.58;;;;;;;;;;7398259;19;20019;-57
2021/12/28 01:05:11;;;;;;;7.07;3.88;;;;;;;;;;7397315;19;20007;-55
2021/12/28 01:07:39;;;;;;;8.95;4.10;;;;;;;;;;7395592;19;20021;-58
2021/12/28 01:10:10;;;;;;;6.43;3.47;;;;;;;;;;7395975;19;20562;-58
2021/12/28 01:12:38;;;;;;;9.43;4.18;;;;;;;;;;7396565;19;20011;-59
2021/12/28 01:15:08;;;;;;;8.02;3.70;;;;;;;;;;7401462;19;20010;-52
2021/12/28 01:17:37;;;;;;;8.65;3.78;;;;;;;;;;7395777;19;20014;-58
2021/12/28 01:20:07;;;;;;;9.90;5.13;;;;;;;;;;7396634;19;20042;-51
2021/12/28 01:22:35;;;;;;;8.82;3.40;;;;;;;;;;7397122;19;20486;-57
2021/12/28 01:25:04;;;;;;;8.45;4.38;;;;;;;;;;7395300;19;20014;-55
2021/12/28 01:27:31;;;;;;;8.15;3.70;;;;;;;;;;7393838;19;20026;-51
2021/12/28 01:29:59;;;;;;;6.57;3.53;;;;;;;;;;7397246;19;20014;-54
2021/12/28 01:32:26;;;;;;;6.32;3.28;;;;;;;;;;7396664;19;20011;-57
2021/12/28 01:34:53;;;;;;;8.18;3.53;;;;;;;;;;7397073;19;20074;-55
2021/12/28 01:37:24;;;;;;;6.55;3.63;;;;;;;;;;7396837;19;20006;-52
2021/12/28 01:39:51;;;;;;;6.15;3.50;;;;;;;;;;7397036;19;20010;-51
2021/12/28 01:42:19;;;;;;;7.10;3.28;;;;;;;;;;7396842;19;20007;-52
2021/12/28 01:44:46;;;;;;;6.75;3.53;;;;;;;;;;7396406;19;20014;-52
2021/12/28 01:47:16;;;;;;;5.78;2.88;;;;;;;;;;7395004;19;20010;-54
2021/12/28 01:49:44;;;;;;;6.95;3.67;;;;;;;;;;7397125;19;20011;-52
2021/12/28 01:52:13;;;;;;;8.02;4.03;;;;;;;;;;7396364;19;20017;-59
2021/12/28 01:54:40;;;;;;;8.13;3.40;;;;;;;;;;7396171;19;20006;-57
2021/12/28 01:57:08;;;;;;;6.18;3.67;;;;;;;;;;7396377;19;20011;-54
2021/12/28 01:59:35;;;;;;;9.05;3.70;;;;;;;;;;7394640;19;20355;-56
2021/12/28 02:02:03;;;;;;;7.57;3.63;;;;;;;;;;7396079;19;20010;-56
2021/12/28 02:04:31;;;;;;;6.68;3.03;;;;;;;;;;7395855;19;20031;-56
2021/12/28 02:06:58;;;;;;;5.80;3.05;;;;;;;;;;7395038;19;20007;-57
2021/12/28 02:09:26;;;;;;;9.75;3.03;;;;;;;;;;7395781;19;20023;-55
2021/12/28 02:11:53;;;;;;;8.30;3.38;;;;;;;;;;7396476;19;20530;-54
2021/12/28 02:14:25;;;;;;;7.68;3.60;;;;;;;;;;7398797;19;20011;-52
2021/12/28 02:16:52;;;;;;;7.18;3.10;;;;;;;;;;7395783;19;20013;-59
2021/12/28 02:19:20;;;;;;;7.93;3.78;;;;;;;;;;7396186;19;20017;-53
2021/12/28 02:21:47;;;;;;;5.72;3.17;;;;;;;;;;7395188;19;20011;-57
2021/12/28 02:24:15;;;;;;;6.82;3.13;;;;;;;;;;7395461;19;20011;-57
2021/12/28 02:26:42;;;;;;;5.95;3.67;;;;;;;;;;7394250;19;20475;-53
2021/12/28 02:29:09;;;;;;;5.63;2.95;;;;;;;;;;7395025;19;20026;-54
2021/12/28 02:31:37;;;;;;;5.60;3.22;;;;;;;;;;7395071;19;20014;-49
2021/12/28 02:34:05;;;;;;;6.15;3.40;;;;;;;;;;7395334;19;20007;-58
2021/12/28 02:36:32;;;;;;;9.10;3.90;;;;;;;;;;7394855;19;20017;-58
2021/12/28 02:39:00;;;;;;;5.75;3.40;;;;;;;;;;7395074;19;20015;-56
2021/12/28 02:41:27;;;;;;;5.90;3.20;;;;;;;;;;7394454;19;20010;-55
2021/12/28 02:43:59;;;;;;;6.38;3.42;;;;;;;;;;7395090;19;20011;-55
2021/12/28 02:46:27;;;;;;;7.18;3.83;;;;;;;;;;7394513;19;20023;-58
2021/12/28 02:48:54;;;;;;;9.95;4.10;;;;;;;;;;7394843;19;20006;-53
2021/12/28 02:51:22;;;;;;;5.70;3.65;;;;;;;;;;7394526;19;20015;-53
2021/12/28 02:53:49;;;;;;;7.53;4.10;;;;;;;;;;7394833;19;20007;-55
2021/12/28 02:56:19;;;;;;;8.70;4.75;;;;;;;;;;7394560;19;20094;-58
2021/12/28 02:58:49;;;;;;;9.38;4.60;;;;;;;;;;7394774;19;20078;-55
2021/12/28 03:01:20;;;;;;;10.80;5.05;;;;;;;;;;7394024;19;20038;-57
2021/12/28 03:03:52;;;;;;;10.85;5.15;;;;;;;;;;7392402;19;20010;-63
2021/12/28 03:06:23;;;;;;;10.85;5.75;;;;;;;;;;7394256;19;20018;-50
2021/12/28 03:08:53;;;;;;;13.80;5.38;;;;;;;;;;7392648;19;20034;-53
2021/12/28 03:11:23;;;;;;;13.70;5.35;;;;;;;;;;7392446;19;20011;-52
2021/12/28 03:13:54;;;;;;;11.48;4.95;;;;;;;;;;7395903;19;20006;-62
2021/12/28 03:16:24;;;;;;;12.68;5.68;;;;;;;;;;7394675;19;20018;-53
2021/12/28 03:18:52;;;;;;;15.52;5.97;;;;;;;;;;7393720;19;20011;-56
2021/12/28 03:21:21;;;;;;;10.27;4.72;;;;;;;;;;7393621;19;20006;-61
2021/12/28 03:23:50;;;;;;;11.40;5.60;;;;;;;;;;7392482;19;20027;-51
2021/12/28 03:26:18;;;;;;;14.50;5.45;;;;;;;;;;7392886;19;20038;-61
2021/12/28 03:28:47;;;;;;;12.90;5.88;;;;;;;;;;7391133;19;20014;-57
2021/12/28 03:31:17;;;;;;;11.02;5.05;;;;;;;;;;7392411;19;20015;-55
2021/12/28 03:33:48;;;;;;;10.95;5.45;;;;;;;;;;7393018;19;20010;-54
2021/12/28 03:36:23;;;;;;;13.75;4.78;;;;;;;;;;7391804;19;20030;-59
2021/12/28 03:38:51;;;;;;;10.32;4.88;;;;;;;;;;7392813;19;20030;-61
2021/12/28 03:41:21;;;;;;;15.25;5.22;;;;;;;;;;7393723;19;20042;-53
2021/12/28 03:43:51;;;;;;;14.20;5.07;;;;;;;;;;7392708;19;20015;-61
2021/12/28 03:46:19;;;;;;;10.00;4.57;;;;;;;;;;7393019;19;20022;-55
2021/12/28 03:48:47;;;;;;;9.85;5.32;;;;;;;;;;7390904;19;20021;-54
2021/12/28 03:51:16;;;;;;;11.93;4.50;;;;;;;;;;7391848;19;20088;-61
2021/12/28 03:53:46;;;;;;;10.57;4.35;;;;;;;;;;7392685;19;20417;-61
2021/12/28 03:56:14;;;;;;;7.22;3.95;;;;;;;;;;7392386;19;20459;-51
2021/12/28 03:58:43;;;;;;;11.57;4.05;;;;;;;;;;7391246;19;20015;-52
2021/12/28 04:01:14;;;;;;;10.80;4.07;;;;;;;;;;7392364;19;20022;-55
2021/12/28 04:03:42;;;;;;;11.18;3.85;;;;;;;;;;7388755;19;20010;-61
2021/12/28 04:06:10;;;;;;;8.30;4.13;;;;;;;;;;7391192;19;20014;-56
2021/12/28 04:08:40;;;;;;;6.93;3.47;;;;;;;;;;7390574;19;20019;-62
2021/12/28 04:13:44;;;;;;;10.20;3.97;;;;;;;;;;7392791;19;20018;-62
2021/12/28 04:16:12;;;;;;;8.45;3.95;;;;;;;;;;7391545;19;20022;-60
2021/12/28 04:18:40;;;;;;;11.48;3.58;;;;;;;;;;7390132;19;20014;-54
2021/12/28 04:21:09;;;;;;;9.95;4.53;;;;;;;;;;7391547;19;20018;-53
2021/12/28 04:23:37;;;;;;;6.25;3.33;;;;;;;;;;7390891;19;20030;-54
2021/12/28 04:26:05;;;;;;;9.20;4.40;;;;;;;;;;7391995;19;20478;-56
2021/12/28 04:28:33;;;;;;;8.10;3.80;;;;;;;;;;7390011;19;20015;-54
2021/12/28 04:31:02;;;;;;;8.10;3.90;;;;;;;;;;7389496;19;20084;-62
2021/12/28 04:33:30;;;;;;;9.13;4.32;;;;;;;;;;7389257;19;20011;-56
2021/12/28 04:35:58;;;;;;;8.35;3.20;;;;;;;;;;7395406;19;20014;-61
2021/12/28 04:38:26;;;;;;;8.13;3.70;;;;;;;;;;7398717;19;20011;-51
2021/12/28 04:40:54;;;;;;;14.15;3.70;;;;;;;;;;7399054;19;20010;-52
2021/12/28 04:43:22;;;;;;;12.85;4.38;;;;;;;;;;7399128;19;20011;-59
2021/12/28 04:45:49;;;;;;;9.98;4.85;;;;;;;;;;7398970;19;20017;-62
2021/12/28 04:48:17;;;;;;;8.27;4.32;;;;;;;;;;7396309;19;20035;-62
2021/12/28 04:50:45;;;;;;;13.20;5.32;;;;;;;;;;7397620;19;20449;-54
2021/12/28 04:53:13;;;;;;;8.73;4.00;;;;;;;;;;7398944;19;20112;-61
2021/12/28 04:55:46;;;;;;;10.38;6.15;;;;;;;;;;7397672;19;20018;-61
2021/12/28 04:58:14;;;;;;;12.13;4.80;;;;;;;;;;7398044;19;20017;-55
2021/12/28 05:00:44;;;;;;;11.57;5.40;;;;;;;;;;7397678;19;20011;-56
2021/12/28 05:03:13;;;;;;;9.98;5.57;;;;;;;;;;7394884;19;20018;-60
2021/12/28 05:05:45;;;;;;;9.93;5.00;;;;;;;;;;7395990;19;20439;-60
2021/12/28 05:08:13;;;;;;;8.30;4.40;;;;;;;;;;7396057;19;20021;-59
2021/12/28 05:10:42;;;;;;;8.20;4.65;;;;;;;;;;7396845;19;20019;-54
2021/12/28 05:13:10;;;;;;;11.32;5.20;;;;;;;;;;7397365;19;20010;-52
2021/12/28 05:15:38;;;;;;;9.77;4.88;;;;;;;;;;7397460;19;20011;-61
2021/12/28 05:18:06;;;;;;;7.75;4.50;;;;;;;;;;7397536;19;20014;-62
2021/12/28 05:20:33;;;;;;;10.48;4.80;;;;;;;;;;7397341;19;20018;-58
2021/12/28 05:23:01;;;;;;;10.13;5.70;;;;;;;;;;7399840;19;20034;-60
2021/12/28 05:25:30;;;;;;;9.73;5.30;;;;;;;;;;7396382;19;20010;-52
2021/12/28 05:27:58;;;;;;;10.88;4.82;;;;;;;;;;7395692;19;20006;-54
2021/12/28 05:30:26;;;;;;;9.50;4.88;;;;;;;;;;7397496;19;20019;-54
2021/12/28 05:32:54;;;;;;;11.60;4.68;;;;;;;;;;7397696;19;20006;-59
2021/12/28 05:35:21;;;;;;;9.13;4.57;;;;;;;;;;7397646;19;20011;-58
2021/12/28 05:37:49;;;;;;;12.30;4.40;;;;;;;;;;7396675;19;20045;-59
2021/12/28 05:40:17;;;;;;;259.48;77.60;;;;;;;;;;7395941;19;20019;-54
2021/12/28 05:42:45;;;;;;;15.63;6.43;;;;;;;;;;7394805;19;20377;-55
2021/12/28 05:45:13;;;;;;;11.48;4.72;;;;;;;;;;7395211;19;20110;-62
2021/12/28 05:47:40;;;;;;;8.38;4.50;;;;;;;;;;7394801;19;20487;-51
2021/12/28 05:50:11;;;;;;;10.63;6.63;;;;;;;;;;7396242;19;20015;-62
2021/12/28 05:52:39;;;;;;;10.13;3.95;;;;;;;;;;7396484;19;20022;-61
2021/12/28 05:55:06;;;;;;;10.60;4.53;;;;;;;;;;7395725;19;20038;-62
2021/12/28 05:57:35;;;;;;;9.40;4.03;;;;;;;;;;7396162;19;20018;-54
2021/12/28 06:00:07;;;;;;;6.88;3.90;;;;;;;;;;7395967;19;20018;-59
2021/12/28 06:02:35;;;;;;;8.65;4.38;;;;;;;;;;7396240;19;20016;-53
2021/12/28 06:05:03;;;;;;;11.82;5.03;;;;;;;;;;7395890;19;20011;-61
2021/12/28 06:07:31;;;;;;;121.85;40.30;;;;;;;;;;7395129;19;20021;-56
2021/12/28 06:09:59;;;;;;;22.10;9.38;;;;;;;;;;7396083;19;20017;-62
2021/12/28 06:12:28;;;;;;;10.43;4.72;;;;;;;;;;7395783;19;20069;-53
2021/12/28 06:14:55;;;;;;;8.63;4.63;;;;;;;;;;7397221;19;20013;-61
2021/12/28 06:17:23;;;;;;;7.93;4.28;;;;;;;;;;7394517;19;20007;-58
2021/12/28 06:19:51;;;;;;;6.72;3.65;;;;;;;;;;7395734;19;20013;-61
2021/12/28 06:22:18;;;;;;;8.13;3.75;;;;;;;;;;7395361;19;20046;-60
2021/12/28 06:24:48;;;;;;;13.20;4.43;;;;;;;;;;7394534;19;20474;-62
2021/12/28 06:27:16;;;;;;;6.90;4.20;;;;;;;;;;7395351;19;20011;-63
2021/12/28 06:29:44;;;;;;;7.40;4.70;;;;;;;;;;7392530;19;20014;-63
2021/12/28 06:32:11;;;;;;;7.45;3.78;;;;;;;;;;7394963;19;20400;-56
2021/12/28 06:34:39;;;;;;;8.55;3.90;;;;;;;;;;7394723;19;20014;-64
2021/12/28 06:37:06;;;;;;;10.38;4.70;;;;;;;;;;7394499;19;20010;-63
2021/12/28 06:39:34;;;;;;;10.68;4.53;;;;;;;;;;7394671;19;20041;-62
2021/12/28 06:42:02;;;;;;;17.08;8.05;;;;;;;;;;7394465;19;20014;-59
2021/12/28 06:44:29;;;;;;;28.35;13.32;;;;;;;;;;7393104;19;20451;-56
2021/12/28 06:46:57;;;;;;;24.90;12.80;;;;;;;;;;7393964;19;20047;-61
2021/12/28 06:49:24;;;;;;;91.18;36.47;;;;;;;;;;7392437;19;20015;-60
2021/12/28 06:51:52;;;;;;;39.08;18.65;;;;;;;;;;7394777;19;20010;-61
2021/12/28 06:54:19;;;;;;;10.13;6.32;;;;;;;;;;7394298;19;20013;-61
2021/12/28 06:56:46;;;;;;;7.15;4.35;;;;;;;;;;7394435;19;20014;-55
2021/12/28 06:59:13;;;;;;;7.28;4.47;;;;;;;;;;7391981;19;20006;-62
2021/12/28 07:01:41;;;;;;;7.85;4.28;;;;;;;;;;7393029;19;20007;-61
2021/12/28 07:04:09;;;;;;;8.35;3.78;;;;;;;;;;7393756;19;20011;-58
2021/12/28 07:06:36;;;;;;;10.25;3.80;;;;;;;;;;7393992;19;20018;-56
2021/12/28 07:09:03;;;;;;;8.07;3.65;;;;;;;;;;7392423;19;20031;-52
2021/12/28 07:11:31;;;;;;;6.70;3.83;;;;;;;;;;7393255;19;20025;-62
2021/12/28 07:13:58;;;;;;;8.13;4.00;;;;;;;;;;7395331;19;20489;-61
2021/12/28 07:16:25;;;;;;;7.72;4.05;;;;;;;;;;7393471;19;20014;-54
2021/12/28 07:18:53;;;;;;;8.07;3.63;;;;;;;;;;7392851;19;20015;-61
2021/12/28 07:21:20;;;;;;;6.80;3.67;;;;;;;;;;7392039;19;20014;-56
2021/12/28 07:23:47;;;;;;;9.80;4.25;;;;;;;;;;7393257;19;20007;-53
2021/12/28 07:26:15;;;;;;;31.58;12.73;;;;;;;;;;7393293;19;20575;-54
2021/12/28 07:28:42;;;;;;;7.47;3.25;;;;;;;;;;7391784;19;20021;-55
2021/12/28 07:31:09;;;;;;;7.55;3.63;;;;;;;;;;7392490;19;20010;-62
2021/12/28 07:33:37;;;;;;;8.63;3.70;;;;;;;;;;7393011;19;20006;-53
2021/12/28 07:36:05;;;;;;;6.13;3.70;;;;;;;;;;7392618;19;20021;-61
2021/12/28 07:38:32;;;;;;;9.77;4.05;;;;;;;;;;7392756;19;20355;-55
2021/12/28 07:41:00;;;;;;;5.85;3.38;;;;;;;;;;7392647;19;20006;-54
2021/12/28 07:43:27;;;;;;;6.43;3.35;;;;;;;;;;7389031;19;20401;-51
2021/12/28 07:45:55;;;;;;;10.02;3.95;;;;;;;;;;7394154;19;20010;-54
2021/12/28 07:48:22;;;;;;;6.55;3.65;;;;;;;;;;7387283;19;20070;-55
2021/12/28 07:50:50;;;;;;;6.72;3.47;;;;;;;;;;7392733;19;20025;-61
2021/12/28 07:53:17;;;;;;;192.90;67.38;;;;;;;;;;7392459;19;20470;-49
2021/12/28 07:55:45;;;;;;;37.45;13.73;;;;;;;;;;7396160;19;20210;-56
2021/12/28 07:58:13;;;;;;;18.40;7.47;;;;;;;;;;7392536;19;20039;-60
2021/12/28 08:00:40;;;;;;;8.77;4.55;;;;;;;;;;7392392;19;20613;-62
2021/12/28 08:03:11;;;;;;;9.23;3.85;;;;;;;;;;7390297;19;20017;-68
2021/12/28 08:05:39;;;;;;;9.52;4.00;;;;;;;;;;7392971;19;20006;-63
2021/12/28 08:08:06;;;;;;;7.28;3.45;;;;;;;;;;7393921;19;20037;-56
2021/12/28 08:10:34;;;;;;;6.95;3.90;;;;;;;;;;7391928;19;20018;-56
2021/12/28 08:13:01;;;;;;;7.05;3.70;;;;;;;;;;7391787;19;20014;-52
2021/12/28 08:15:29;;;;;;;6.30;3.33;;;;;;;;;;7392127;19;20010;-55
2021/12/28 08:18:00;;;;;;;7.88;4.03;;;;;;;;;;7391683;19;20012;-53
2021/12/28 08:20:27;;;;;;;14.48;5.50;;;;;;;;;;7390227;19;20062;-55
2021/12/28 08:22:56;;;;;;;16.05;7.72;;;;;;;;;;7389658;19;20007;-55
2021/12/28 08:25:26;;;;;;;16.75;7.82;;;;;;;;;;7396015;19;20007;-52
2021/12/28 08:27:53;;;;;;;13.93;6.50;;;;;;;;;;7391821;19;20011;-53
2021/12/28 08:30:21;;;;;;;407.98;138.13;;;;;;;;;;7391203;19;20505;-61
2021/12/28 08:32:54;;;;;;;38.90;14.75;;;;;;;;;;7393983;19;20032;-62
2021/12/28 08:35:22;;;;;;;;;;;;;;;;;;7391389;19;20485;-62
2021/12/28 08:37:49;;;;;;;22.42;8.82;;;;;;;;;;7391097;19;19970;-58
2021/12/28 08:40:17;;;;;;;120.53;43.55;;;;;;;;;;7390593;19;20007;-60
2021/12/28 08:42:45;;;;;;;13.43;7.65;;;;;;;;;;7392174;19;20073;-50
2021/12/28 08:45:13;;;;;;;23.77;11.38;;;;;;;;;;7393260;19;20010;-61
2021/12/28 08:47:41;;;;;;;11.38;4.95;;;;;;;;;;7389466;19;20014;-60
2021/12/28 08:50:09;;;;;;;19.35;11.85;;;;;;;;;;7390864;19;20014;-60
2021/12/28 08:52:38;;;;;;;16.30;7.90;;;;;;;;;;7389169;19;20037;-54
2021/12/28 08:55:12;;;;;;;8.90;6.18;;;;;;;;;;7390323;19;20510;-56
2021/12/28 08:57:39;;;;;;;7.22;3.25;;;;;;;;;;7390658;19;20025;-52
2021/12/28 09:00:11;;;;;;;6.10;3.28;;;;;;;;;;7388934;19;20026;-61
2021/12/28 09:02:38;;;;;;;5.00;2.97;;;;;;;;;;7388380;19;20011;-61
2021/12/28 09:05:07;;;;;;;4.70;2.78;;;;;;;;;;7390204;19;20017;-53
2021/12/28 09:07:34;;;;;;;4.53;2.72;;;;;;;;;;7390063;19;20011;-61
2021/12/28 09:10:03;;;;;;;4.75;2.80;;;;;;;;;;7388584;19;20026;-62
2021/12/28 09:12:30;;;;;;;5.57;3.63;;;;;;;;;;7389832;19;20003;-62
2021/12/28 09:14:58;;;;;;;7.68;4.55;;;;;;;;;;7389967;19;20054;-61
2021/12/28 09:17:25;;;;;;;4.85;3.08;;;;;;;;;;7389776;19;20014;-57
2021/12/28 09:19:52;;;;;;;43.97;13.65;;;;;;;;;;7389911;19;20475;-58
2021/12/28 09:22:20;;;;;;;11.30;5.32;;;;;;;;;;7394997;19;20018;-61
2021/12/28 09:24:47;;;;;;;8.07;4.00;;;;;;;;;;7397003;19;20034;-62
2021/12/28 09:27:17;;;;;;;7.85;4.10;;;;;;;;;;7397073;19;20546;-62
2021/12/28 09:29:45;;;;;;;11.57;4.45;;;;;;;;;;7395116;19;20038;-60
2021/12/28 09:32:17;;;;;;;6.70;3.80;;;;;;;;;;7396863;19;20007;-54
2021/12/28 09:34:46;;;;;;;4.65;2.85;;;;;;;;;;7393063;19;20021;-54
2021/12/28 09:37:13;;;;;;;5.10;2.95;;;;;;;;;;7396364;19;20006;-51
2021/12/28 09:39:41;;;;;;;6.78;3.45;;;;;;;;;;7394749;19;20010;-60
2021/12/28 09:42:09;;;;;;;5.05;3.00;;;;;;;;;;7396414;19;20027;-57
2021/12/28 09:44:41;;;;;;;6.63;3.53;;;;;;;;;;7396655;19;20483;-61
2021/12/28 09:47:08;;;;;;;5.50;2.97;;;;;;;;;;7396486;19;20011;-55
2021/12/28 09:49:36;;;;;;;6.50;3.33;;;;;;;;;;7394657;19;20010;-55
2021/12/28 09:52:05;;;;;;;11.35;5.65;;;;;;;;;;7395988;19;20015;-52
2021/12/28 09:54:33;;;;;;;17.38;7.30;;;;;;;;;;7395522;19;20027;-53
2021/12/28 09:57:01;;;;;;;7.95;3.80;;;;;;;;;;7396272;19;20013;-61
2021/12/28 09:59:30;;;;;;;5.93;3.40;;;;;;;;;;7396661;19;20019;-61
2021/12/28 10:01:59;;;;;;;5.43;2.85;;;;;;;;;;7396903;19;20014;-56
2021/12/28 10:04:28;;;;;;;5.53;3.45;;;;;;;;;;7396343;19;20015;-61
2021/12/28 10:07:21;;;;;;;7.07;4.28;;;;;;;;;;7395599;19;20010;-53
2021/12/28 10:09:49;;;;;;;6.88;2.70;;;;;;;;;;7394342;19;20010;-60
2021/12/28 10:12:34;;;;;;;4.90;2.70;;;;;;;;;;7395855;19;20039;-60
2021/12/28 10:15:06;;;;;;;5.00;3.10;;;;;;;;;;7395310;19;20022;-57
2021/12/28 10:17:34;;;;;;;6.68;3.40;;;;;;;;;;7394595;19;20011;-57
2021/12/28 10:20:08;;;;;;;4.97;2.75;;;;;;;;;;7395554;19;20012;-60
2021/12/28 10:22:43;;;;;;;14.90;6.03;;;;;;;;;;7395381;19;20086;-53
2021/12/28 10:25:14;;;;;;;6.93;4.35;;;;;;;;;;7395716;19;20494;-62
2021/12/28 10:27:44;;;;;;;10.90;3.63;;;;;;;;;;7395142;19;20010;-62
2021/12/28 10:30:18;;;;;;;5.93;2.88;;;;;;;;;;7393683;19;20056;-61
2021/12/28 10:32:47;;;;;;;6.22;2.83;;;;;;;;;;7394204;19;20022;-61
2021/12/28 10:35:19;;;;;;;6.82;3.03;;;;;;;;;;7392445;19;20014;-55
2021/12/28 10:37:51;;;;;;;6.45;2.83;;;;;;;;;;7394743;19;20481;-62
2021/12/28 10:40:30;;;;;;;5.85;3.30;;;;;;;;;;7395034;19;20014;-62
2021/12/28 10:43:03;;;;;;;5.30;2.65;;;;;;;;;;7395068;19;20026;-62
2021/12/28 10:45:39;;;;;;;4.90;2.95;;;;;;;;;;7395629;19;20018;-62
2021/12/28 10:48:11;;;;;;;5.25;2.72;;;;;;;;;;7391585;19;20011;-48
2021/12/28 10:51:04;;;;;;;5.07;2.75;;;;;;;;;;7392561;19;20022;-53
2021/12/28 10:53:44;;;;;;;7.03;3.30;;;;;;;;;;7395301;19;20010;-48
2021/12/28 10:56:11;;;;;;;6.85;3.13;;;;;;;;;;7394211;19;20486;-52
2021/12/28 10:58:42;;;;;;;39.67;13.40;;;;;;;;;;7393935;19;20486;-63
2021/12/28 11:01:19;;;;;;;15.57;7.68;;;;;;;;;;7394653;19;20038;-60
2021/12/28 11:03:51;;;;;;;9.63;4.90;;;;;;;;;;7394228;19;20038;-54
2021/12/28 11:06:24;;;;;;;7.82;2.60;;;;;;;;;;7394013;19;20014;-56
2021/12/28 11:08:55;;;;;;;6.88;3.60;;;;;;;;;;7393492;19;20026;-61
2021/12/28 11:11:27;;;;;;;9.18;3.17;;;;;;;;;;7394227;19;20018;-55
2021/12/28 11:14:10;;;;;;;6.43;3.08;;;;;;;;;;7393834;19;20017;-61
2021/12/28 11:16:39;;;;;;;5.28;2.55;;;;;;;;;;7391593;19;20050;-61
2021/12/28 11:19:10;;;;;;;4.68;3.00;;;;;;;;;;7393724;19;20011;-56
2021/12/28 11:21:41;;;;;;;6.07;3.00;;;;;;;;;;7393068;19;20034;-61
2021/12/28 11:24:13;;;;;;;6.05;3.10;;;;;;;;;;7392708;19;20494;-51
2021/12/28 11:26:42;;;;;;;6.20;3.35;;;;;;;;;;7393431;19;20010;-61
2021/12/28 11:29:13;;;;;;;6.30;3.28;;;;;;;;;;7392512;19;20478;-60
2021/12/28 11:31:50;;;;;;;4.88;2.67;;;;;;;;;;7368265;19;20518;-60
2021/12/28 11:34:28;;;;;;;5.50;2.95;;;;;;;;;;7391710;19;20017;-61
2021/12/28 11:37:00;;;;;;;5.43;3.00;;;;;;;;;;7391495;19;20666;-55
2021/12/28 11:39:32;;;;;;;8.27;2.88;;;;;;;;;;7393437;19;20006;-62
2021/12/28 11:42:01;;;;;;;4.57;2.88;;;;;;;;;;7393363;19;20014;-61
2021/12/28 11:44:29;;;;;;;160.45;49.08;;;;;;;;;;7394284;19;20011;-62
2021/12/28 11:47:00;;;;;;;16.05;7.68;;;;;;;;;;7392099;19;20470;-53
2021/12/28 11:49:28;;;;;;;8.52;5.18;;;;;;;;;;7396276;19;20018;-61
2021/12/28 11:51:59;;;;;;;14.35;8.45;;;;;;;;;;7392588;19;20010;-62
2021/12/28 11:54:34;;;;;;;7.10;4.13;;;;;;;;;;7392092;19;20027;-52
2021/12/28 11:57:26;;;;;;;11.00;3.65;;;;;;;;;;7392249;19;20486;-61
2021/12/28 12:00:01;;;;;;;5.80;3.13;;;;;;;;;;7391797;19;20024;-63
2021/12/28 12:02:39;;;;;;;4.30;2.20;;;;;;;;;;7390427;19;20021;-52
2021/12/28 12:05:24;;;;;;;5.95;3.30;;;;;;;;;;7392320;19;20007;-61
2021/12/28 12:08:16;;;;;;;6.47;3.35;;;;;;;;;;7391834;19;20006;-58
2021/12/28 12:10:46;;;;;;;5.22;3.15;;;;;;;;;;7389546;19;20011;-62
2021/12/28 12:13:16;;;;;;;4.47;2.53;;;;;;;;;;7391830;19;20037;-60
2021/12/28 12:15:47;;;;;;;6.82;3.00;;;;;;;;;;7391814;19;20022;-60
2021/12/28 12:18:17;;;;;;;7.28;3.17;;;;;;;;;;7391238;19;20031;-58
2021/12/28 12:20:53;;;;;;;5.03;2.30;;;;;;;;;;7391099;19;20011;-52
2021/12/28 12:23:24;;;;;;;163.50;48.00;;;;;;;;;;7391422;19;20007;-57
2021/12/28 12:26:09;;;;;;;6.43;3.72;;;;;;;;;;7391450;19;20017;-50
2021/12/28 12:28:50;;;;;;;5.38;2.90;;;;;;;;;;7391622;19;20021;-55
2021/12/28 12:31:37;;;;;;;6.85;2.92;;;;;;;;;;7389367;19;20026;-51
2021/12/28 12:34:29;;;;;;;7.18;3.40;;;;;;;;;;7394534;19;20024;-53
2021/12/28 12:36:56;;;;;;;6.93;3.78;;;;;;;;;;7391428;19;20022;-52
2021/12/28 12:39:24;;;;;;;8.27;4.13;;;;;;;;;;7390622;19;20487;-54
2021/12/28 12:41:55;;;;;;;4.93;3.03;;;;;;;;;;7391067;19;20031;-62
2021/12/28 12:44:27;;;;;;;4.63;2.72;;;;;;;;;;7390325;19;20491;-53
2021/12/28 12:47:04;;;;;;;3.70;2.33;;;;;;;;;;7390707;19;20593;-59
2021/12/28 12:49:32;;;;;;;12.75;4.63;;;;;;;;;;7389810;19;20007;-51
2021/12/28 12:52:10;;;;;;;8.32;4.30;;;;;;;;;;7390403;19;20006;-58
2021/12/28 12:54:42;;;;;;;8.38;3.50;;;;;;;;;;7390639;19;20034;-55
2021/12/28 12:57:12;;;;;;;5.25;3.40;;;;;;;;;;7394344;19;20476;-54
2021/12/28 12:59:42;;;;;;;4.85;2.95;;;;;;;;;;7397864;19;20015;-54
2021/12/28 13:02:32;;;;;;;5.10;2.90;;;;;;;;;;7396421;19;20090;-54
2021/12/28 13:05:09;;;;;;;7.82;3.25;;;;;;;;;;7398356;19;20022;-54
2021/12/28 13:07:38;;;;;;;4.95;2.97;;;;;;;;;;7398594;19;20056;-54
2021/12/28 13:10:18;;;;;;;5.72;2.80;;;;;;;;;;7395749;19;20025;-61
2021/12/28 13:12:53;;;;;;;6.28;2.65;;;;;;;;;;7398006;19;20483;-54
2021/12/28 13:15:26;;;;;;;5.57;2.80;;;;;;;;;;7397456;19;20011;-52
2021/12/28 13:17:55;;;;;;;5.78;2.88;;;;;;;;;;7397555;19;20015;-51
2021/12/28 13:20:30;;;;;;;5.00;2.50;;;;;;;;;;7397740;19;20088;-61
2021/12/28 13:23:04;;;;;;;5.28;2.92;;;;;;;;;;7396846;19;20007;-58
2021/12/28 13:25:42;;;;;;;7.60;3.15;;;;;;;;;;7396937;19;20018;-61
2021/12/28 13:28:11;;;;;;;8.25;3.88;;;;;;;;;;7397727;19;20014;-51
2021/12/28 13:30:41;;;;;;;7.28;3.22;;;;;;;;;;7395650;19;20142;-60
2021/12/28 13:33:13;;;;;;;7.40;3.15;;;;;;;;;;7397141;19;20018;-60
2021/12/28 13:35:42;;;;;;;44.28;18.35;;;;;;;;;;7397858;19;20014;-50
2021/12/28 13:38:16;;;;;;;10.73;4.43;;;;;;;;;;7396428;19;20017;-50
2021/12/28 13:40:56;;;;;;;6.38;3.53;;;;;;;;;;7396561;19;20011;-52
2021/12/28 13:43:31;;;;;;;5.97;3.42;;;;;;;;;;7396286;19;20068;-55
2021/12/28 13:46:09;;;;;;;91.18;47.33;;;;;;;;;;7396541;19;20038;-47
2021/12/28 13:48:45;;;;;;;32.65;14.98;;;;;;;;;;7396664;19;20010;-57
2021/12/28 13:51:17;;;;;;;7.32;4.35;;;;;;;;;;7394808;19;20006;-62
2021/12/28 13:53:49;;;;;;;6.93;3.00;;;;;;;;;;7396693;19;20011;-56
2021/12/28 13:56:18;;;;;;;5.90;2.85;;;;;;;;;;7396440;19;20509;-57
2021/12/28 13:58:52;;;;;;;16.52;7.38;;;;;;;;;;7396614;19;20011;-56
2021/12/28 14:01:26;;;;;;;12.15;6.75;;;;;;;;;;7395946;19;20024;-54
2021/12/28 14:04:02;;;;;;;;;;;;;;;;;;7396444;19;20069;-62
2021/12/28 14:06:33;;;;;;;8.43;3.80;;;;;;;;;;7395360;19;19926;-56
2021/12/28 14:09:04;;;;;;;225.10;75.00;;;;;;;;;;7395908;19;20024;-63
2021/12/28 14:11:38;;;;;;;111.35;47.50;;;;;;;;;;7395064;19;20038;-49
2021/12/28 14:14:16;;;;;;;;;;;;;;;;;;7396653;19;20006;-55
2021/12/28 14:17:03;;;;;;;8.65;5.13;;;;;;;;;;7392445;19;20631;-53
2021/12/28 14:19:37;;;;;;;4.13;2.30;;;;;;;;;;7390499;19;20014;-52
2021/12/28 14:22:08;;;;;;;4.75;2.92;;;;;;;;;;7394859;19;20002;-60
2021/12/28 14:24:37;;;;;;;5.90;3.07;;;;;;;;;;7395858;19;20014;-63
2021/12/28 14:27:05;;;;;;;4.80;2.65;;;;;;;;;;7395022;19;20011;-62
2021/12/28 14:29:33;;;;;;;7.82;3.85;;;;;;;;;;7395108;19;20486;-51
2021/12/28 14:32:09;;;;;;;4.90;3.00;;;;;;;;;;7395093;19;20034;-64
2021/12/28 14:34:42;;;;;;;5.80;2.97;;;;;;;;;;7394776;19;20018;-58
2021/12/28 14:37:24;;;;;;;4.88;2.60;;;;;;;;;;7394928;19;20483;-62
2021/12/28 14:39:58;;;;;;;4.20;2.30;;;;;;;;;;7394733;19;20014;-48
2021/12/28 14:42:33;;;;;;;5.63;2.67;;;;;;;;;;7394216;19;20490;-51
2021/12/28 14:45:03;;;;;;;4.40;2.28;;;;;;;;;;7394450;19;20014;-63
2021/12/28 14:47:32;;;;;;;3.45;2.35;;;;;;;;;;7394211;19;20081;-51
2021/12/28 14:50:10;;;;;;;4.43;2.30;;;;;;;;;;7393971;19;20010;-62
2021/12/28 14:52:38;;;;;;;5.05;2.38;;;;;;;;;;7394064;19;20111;-59
2021/12/28 14:55:18;;;;;;;4.32;2.63;;;;;;;;;;7394277;19;20038;-63
2021/12/28 14:57:49;;;;;;;6.55;3.30;;;;;;;;;;7394633;19;20036;-58
2021/12/28 15:00:30;;;;;;;7.95;3.30;;;;;;;;;;7393812;19;20014;-54